Time;durP1;ratioP1;P1;durP2;ratioP2;P2;SDS_P1;SDS_P2;PMS_P1;PMS_P2;Temp;Humidity;BMP_temperature;BMP_pressure;BME280_temperature;BME280_humidity;BME280_pressure;Samples;Min_cycle;Max_cycle;Signal;HPM_P1;HPM_P2
2024/01/15 00:02:08;;;;;;;18.08;10.15;;;;;;;3.49;76.55;101073.00;5085526;28;20032;-86
2024/01/15 00:04:41;;;;;;;17.27;10.10;;;;;;;3.55;76.81;101086.44;5071333;28;20554;-85
2024/01/15 00:07:07;;;;;;;15.93;9.68;;;;;;;3.59;77.11;101111.75;5082909;28;20098;-86
2024/01/15 00:09:33;;;;;;;17.70;9.90;;;;;;;3.69;77.33;101121.22;5083683;28;20096;-87
2024/01/15 00:11:59;;;;;;;15.95;10.13;;;;;;;3.17;76.80;101043.59;5094490;28;20568;-86
2024/01/15 00:14:25;;;;;;;16.92;9.93;;;;;;;3.21;77.28;101049.94;5109022;28;20047;-85
2024/01/15 00:16:51;;;;;;;16.38;9.52;;;;;;;2.97;77.50;101010.00;5093190;28;20084;-84
2024/01/15 00:19:17;;;;;;;16.90;9.88;;;;;;;3.25;77.54;101077.81;5090940;28;20538;-84
2024/01/15 00:21:43;;;;;;;;;;;;;;;3.55;77.40;101126.06;5079513;28;20093;-88
2024/01/15 00:24:09;;;;;;;16.10;9.50;;;;;;;3.57;78.00;101121.94;5105123;28;19908;-86
2024/01/15 00:26:35;;;;;;;18.25;10.65;;;;;;;3.37;77.58;101099.56;5090691;28;20032;-89
2024/01/15 00:29:02;;;;;;;15.50;9.40;;;;;;;3.17;77.73;101058.19;5093266;28;20486;-88
2024/01/15 00:31:30;;;;;;;17.85;10.30;;;;;;;3.47;77.69;101121.91;5073143;28;20143;-87
2024/01/15 00:33:57;;;;;;;17.33;10.00;;;;;;;3.35;78.05;101101.09;5063440;28;20032;-88
2024/01/15 00:36:23;;;;;;;18.15;10.48;;;;;;;3.49;77.63;101111.72;5075075;28;20029;-87
2024/01/15 00:38:48;;;;;;;16.42;9.77;;;;;;;3.24;77.86;101071.75;5075469;28;20413;-87
2024/01/15 00:41:15;;;;;;;18.35;10.55;;;;;;;3.16;77.85;101053.81;5073330;28;20032;-88
2024/01/15 00:43:41;;;;;;;17.92;10.00;;;;;;;3.31;78.19;101082.63;5067451;28;20035;-88
2024/01/15 00:46:07;;;;;;;17.73;9.60;;;;;;;3.09;78.03;101035.94;5072242;28;20028;-87
2024/01/15 00:48:33;;;;;;;;;;;;;;;3.50;78.09;101111.84;5091380;28;20177;-87
2024/01/15 00:50:59;;;;;;;18.40;10.05;;;;;;;3.15;77.84;101050.28;5109135;28;19995;-87
2024/01/15 00:53:25;;;;;;;17.25;9.68;;;;;;;3.23;77.77;101071.63;5074102;28;20562;-87
2024/01/15 00:55:51;;;;;;;19.00;10.63;;;;;;;3.10;77.78;101045.50;5092729;28;20558;-87
2024/01/15 00:58:17;;;;;;;17.65;10.40;;;;;;;3.50;78.14;101108.38;5090153;28;20098;-88
2024/01/15 01:00:42;;;;;;;16.60;9.48;;;;;;;3.22;77.81;101057.81;5089075;28;20508;-88
2024/01/15 01:03:09;;;;;;;16.92;9.73;;;;;;;3.49;77.65;101091.97;5084443;28;20489;-88
2024/01/15 01:05:35;;;;;;;16.20;9.52;;;;;;;3.53;77.77;101109.53;5080845;28;20072;-87
2024/01/15 01:08:01;;;;;;;15.60;9.85;;;;;;;3.57;77.62;101111.59;5075017;28;20027;-86
2024/01/15 01:10:27;;;;;;;16.88;9.75;;;;;;;3.14;77.41;101027.84;5070511;28;20033;-87
2024/01/15 01:12:52;;;;;;;;;;;;;;;3.54;78.13;101102.72;5091121;28;20028;-88
2024/01/15 01:15:18;;;;;;;16.35;9.75;;;;;;;3.31;78.04;101080.03;5106468;28;20351;-87
2024/01/15 01:17:44;;;;;;;18.17;10.02;;;;;;;3.22;77.98;101060.41;5108174;28;20031;-87
2024/01/15 01:20:10;;;;;;;17.42;9.88;;;;;;;3.22;77.87;101057.81;5090100;28;20636;-87
2024/01/15 01:22:37;;;;;;;18.45;10.55;;;;;;;3.08;77.90;101026.41;5073534;28;20078;-89
2024/01/15 01:25:05;;;;;;;16.92;10.43;;;;;;;3.54;77.11;101087.22;5092501;28;20055;-89
2024/01/15 01:27:32;;;;;;;17.27;9.98;;;;;;;3.08;77.46;101032.47;5075746;28;20068;-89
2024/01/15 01:29:59;;;;;;;15.40;9.27;;;;;;;3.43;77.67;101088.88;5075968;28;20107;-89
2024/01/15 01:32:25;;;;;;;17.15;9.25;;;;;;;3.37;77.97;101072.84;5070740;28;20150;-88
2024/01/15 01:35:02;;;;;;;16.27;10.02;;;;;;;3.21;77.65;101050.84;5093809;28;20525;-89
2024/01/15 01:37:28;;;;;;;;;;;;;;;3.54;77.24;101110.47;5075426;28;20124;-90
2024/01/15 01:39:55;;;;;;;16.02;8.88;;;;;;;3.29;77.58;101073.84;5086486;28;19923;-90
2024/01/15 01:42:21;;;;;;;16.58;9.57;;;;;;;3.12;77.97;101046.56;5076029;28;20039;-89
2024/01/15 01:44:49;;;;;;;17.63;9.65;;;;;;;3.13;77.37;101032.88;5072326;28;20700;-90
2024/01/15 01:47:22;;;;;;;16.83;9.90;;;;;;;3.50;77.84;101093.78;5091435;28;20073;-89
2024/01/15 01:49:49;;;;;;;16.52;9.40;;;;;;;3.40;77.65;101070.50;5077707;28;20028;-89
2024/01/15 01:52:14;;;;;;;16.52;9.70;;;;;;;3.12;77.80;101038.81;5091448;28;20603;-89
2024/01/15 01:54:42;;;;;;;18.20;10.10;;;;;;;3.15;77.85;101046.81;5075216;28;20028;-89
2024/01/15 01:57:08;;;;;;;15.38;9.55;;;;;;;3.60;77.08;101093.81;5076918;28;20061;-89
2024/01/15 01:59:34;;;;;;;16.98;9.45;;;;;;;3.49;77.36;101081.63;5084894;28;20032;-88
2024/01/15 02:02:01;;;;;;;;;;;;;;;3.54;77.46;101092.38;5077775;28;20413;-88
2024/01/15 02:04:28;;;;;;;15.50;9.50;;;;;;;3.54;77.59;101093.28;5092042;28;19916;-88
2024/01/15 02:06:54;;;;;;;16.55;9.07;;;;;;;3.41;78.03;101088.72;5109338;28;20040;-88
2024/01/15 02:09:24;;;;;;;16.83;9.38;;;;;;;3.49;77.32;101102.28;5100560;28;20024;-88
2024/01/15 02:11:50;;;;;;;16.40;9.73;;;;;;;3.37;77.47;101062.53;5096520;28;20031;-87
2024/01/15 02:14:17;;;;;;;15.38;9.40;;;;;;;3.38;77.41;101057.47;5090052;28;20028;-88
2024/01/15 02:16:43;;;;;;;16.02;9.43;;;;;;;2.94;77.54;101001.97;5078224;28;20037;-88
2024/01/15 02:19:16;;;;;;;16.17;9.43;;;;;;;3.28;77.92;101065.22;5085703;28;20032;-90
2024/01/15 02:21:44;;;;;;;14.88;9.02;;;;;;;3.50;77.55;101096.38;5090186;28;20042;-89
2024/01/15 02:24:09;;;;;;;15.57;9.18;;;;;;;3.15;77.60;101044.22;5077130;28;20147;-89
2024/01/15 02:26:38;;;;;;;18.15;10.10;;;;;;;3.09;77.52;101023.97;5089936;28;20020;-90
2024/01/15 02:29:08;;;;;;;14.48;9.13;;;;;;;3.18;77.72;101036.78;5090032;28;20028;-89
2024/01/15 02:31:34;;;;;;;16.58;9.75;;;;;;;3.49;77.43;101091.97;5074568;28;20032;-89
2024/01/15 02:34:06;;;;;;;15.95;9.60;;;;;;;3.39;77.50;101066.13;5083875;28;20089;-92
2024/01/15 02:36:33;;;;;;;15.77;9.25;;;;;;;3.44;77.93;101077.75;5090365;28;20498;-88
2024/01/15 02:39:00;;;;;;;15.60;9.82;;;;;;;3.24;77.41;101045.06;5090021;28;20028;-89
2024/01/15 02:41:27;;;;;;;16.23;9.40;;;;;;;3.36;77.39;101066.75;5073004;28;20472;-87
2024/01/15 02:43:52;;;;;;;14.98;8.85;;;;;;;2.80;77.98;100973.31;5092199;28;20493;-90
2024/01/15 02:46:18;;;;;;;15.15;9.20;;;;;;;2.96;77.79;101001.31;5090999;28;20035;-88
2024/01/15 02:48:44;;;;;;;15.00;8.95;;;;;;;2.90;77.69;100985.34;5092449;28;20035;-87
2024/01/15 02:51:10;;;;;;;15.48;9.27;;;;;;;3.35;77.50;101062.38;5090768;28;20023;-87
2024/01/15 02:53:36;;;;;;;16.95;9.52;;;;;;;3.39;77.16;101059.28;5083515;28;20161;-88
2024/01/15 02:56:02;;;;;;;14.75;8.90;;;;;;;3.12;77.60;101003.59;5068604;28;20119;-87
2024/01/15 02:58:33;;;;;;;13.93;8.82;;;;;;;3.21;77.15;101024.13;5072696;28;20477;-90
2024/01/15 03:01:13;;;;;;;16.00;9.25;;;;;;;3.13;77.51;101017.38;5089142;28;20036;-90
2024/01/15 03:04:16;;;;;;;17.17;9.77;;;;;;;3.42;77.87;101075.03;5085330;28;20040;-88
2024/01/15 03:07:13;;;;;;;14.98;9.07;;;;;;;3.43;77.58;101075.97;5106483;28;20570;-90
2024/01/15 03:09:51;;;;;;;15.35;9.05;;;;;;;2.81;77.68;100969.03;5089256;28;20058;-88
2024/01/15 03:19:18;;;;;;;16.05;9.68;;;;;;;3.05;77.75;101025.38;5093074;28;20061;-90
2024/01/15 03:22:22;;;;;;;14.77;8.85;;;;;;;3.40;77.97;101088.59;5086146;28;20093;-90
2024/01/15 03:27:40;;;;;;;16.17;9.52;;;;;;;2.89;77.56;100999.00;5093522;28;20051;-90
2024/01/15 03:30:08;;;;;;;16.42;9.18;;;;;;;2.67;77.93;100960.13;5072900;28;20080;-89
2024/01/15 03:32:33;;;;;;;14.88;8.75;;;;;;;3.43;77.91;101088.88;5073491;28;20061;-89
2024/01/15 03:35:00;;;;;;;14.95;9.23;;;;;;;3.04;77.97;101017.50;5077797;28;20020;-89
2024/01/15 03:37:26;;;;;;;16.00;9.45;;;;;;;3.20;77.89;101045.56;5089927;28;20028;-89
2024/01/15 03:39:51;;;;;;;13.48;8.60;;;;;;;3.21;77.71;101053.41;5090114;28;20023;-88
2024/01/15 03:42:17;;;;;;;15.35;8.65;;;;;;;3.31;77.66;101072.31;5088963;28;20028;-89
2024/01/15 03:44:43;;;;;;;21.55;9.23;;;;;;;3.16;77.65;101049.53;5061277;28;20058;-89
2024/01/15 03:47:09;;;;;;;15.60;8.90;;;;;;;3.06;77.98;101032.34;5094584;28;20112;-89
2024/01/15 03:49:39;;;;;;;14.75;8.80;;;;;;;3.03;78.00;101024.34;5070667;28;20032;-91
2024/01/15 03:52:05;;;;;;;14.35;8.63;;;;;;;3.01;78.13;101018.13;5087022;28;20063;-89
2024/01/15 03:54:34;;;;;;;15.05;8.80;;;;;;;2.97;77.90;101012.56;5104038;28;20426;-88
2024/01/15 03:57:03;;;;;;;16.05;8.80;;;;;;;3.14;77.78;101050.19;5087488;28;20055;-88
2024/01/15 03:59:32;;;;;;;16.30;8.90;;;;;;;3.25;77.65;101065.81;5087141;28;20054;-89
2024/01/15 04:02:10;;;;;;;14.70;8.77;;;;;;;2.64;77.31;100955.56;5087883;28;20497;-89
2024/01/15 04:05:16;;;;;;;14.48;8.50;;;;;;;2.79;77.95;100986.94;5091084;28;20078;-89
2024/01/15 04:11:06;;;;;;;15.70;8.73;;;;;;;3.10;77.91;101043.84;5089911;28;20043;-90
2024/01/15 04:13:33;;;;;;;14.43;8.60;;;;;;;3.23;77.94;101062.19;5074413;28;20032;-88
2024/01/15 04:16:00;;;;;;;15.30;8.57;;;;;;;3.10;77.98;101032.63;5105877;28;20095;-89
2024/01/15 04:18:26;;;;;;;16.17;9.70;;;;;;;3.31;77.73;101077.47;5076280;28;20556;-90
2024/01/15 04:20:52;;;;;;;14.65;8.63;;;;;;;3.20;78.02;101056.78;5074940;28;20040;-89
2024/01/15 04:23:19;;;;;;;16.08;8.98;;;;;;;3.19;77.88;101048.88;5089350;28;20111;-89
2024/01/15 04:25:46;;;;;;;14.88;8.90;;;;;;;2.71;77.65;100957.03;5084737;28;20048;-88
2024/01/15 04:28:12;;;;;;;14.52;8.80;;;;;;;2.99;77.86;101000.72;5074796;28;20020;-87
2024/01/15 04:30:38;;;;;;;14.35;8.57;;;;;;;2.96;77.39;100996.16;5085794;28;20077;-89
2024/01/15 04:33:03;;;;;;;15.77;8.98;;;;;;;3.36;77.95;101074.50;5068982;28;20032;-88
2024/01/15 04:35:30;;;;;;;15.30;8.50;;;;;;;3.39;77.65;101071.31;5080735;28;20111;-88
2024/01/15 04:37:57;;;;;;;15.13;9.00;;;;;;;3.16;77.85;101046.06;5085963;28;20498;-90
2024/01/15 04:40:23;;;;;;;17.35;9.82;;;;;;;3.29;77.71;101060.94;5088706;28;20063;-89
2024/01/15 04:42:48;;;;;;;14.30;8.75;;;;;;;3.07;77.93;101012.63;5087883;28;20438;-88
2024/01/15 04:45:14;;;;;;;15.23;9.25;;;;;;;3.38;77.72;101065.22;5089004;28;20028;-88
2024/01/15 04:47:40;;;;;;;17.08;9.73;;;;;;;3.25;77.68;101054.59;5088157;28;20028;-88
2024/01/15 04:50:12;;;;;;;15.98;9.40;;;;;;;2.92;77.46;100980.28;5089197;28;20093;-91
2024/01/15 04:52:39;;;;;;;15.55;9.65;;;;;;;3.08;77.64;101024.72;5070979;28;20857;-90
2024/01/15 04:55:05;;;;;;;15.75;9.15;;;;;;;3.36;77.51;101074.50;5078016;28;20047;-89
2024/01/15 04:57:30;;;;;;;14.70;9.40;;;;;;;3.14;77.57;101032.13;5075905;28;20466;-88
2024/01/15 04:59:56;;;;;;;17.27;9.65;;;;;;;3.39;76.86;101069.63;5075590;28;20123;-88
2024/01/15 05:02:23;;;;;;;17.88;9.57;;;;;;;3.15;76.92;101018.44;5085963;28;20504;-88
2024/01/15 05:04:49;;;;;;;18.40;9.65;;;;;;;2.81;77.30;100975.09;5087324;28;20102;-88
2024/01/15 05:07:14;;;;;;;16.50;9.65;;;;;;;3.39;77.06;101061.88;5080610;28;20127;-88
2024/01/15 05:09:40;;;;;;;17.63;9.45;;;;;;;2.76;76.98;100952.28;5075604;28;20032;-88
2024/01/15 05:12:06;;;;;;;19.23;10.25;;;;;;;2.97;76.40;100969.63;5074242;28;20028;-88
2024/01/15 05:14:31;;;;;;;16.25;9.65;;;;;;;2.98;77.05;100988.56;5092623;28;20419;-87
2024/01/15 05:16:57;;;;;;;16.75;9.85;;;;;;;3.29;76.99;101030.88;5092163;28;20111;-87
2024/01/15 05:19:23;;;;;;;16.70;9.45;;;;;;;2.98;76.57;100983.41;5092616;28;20029;-88
2024/01/15 05:21:49;;;;;;;15.88;9.68;;;;;;;3.26;77.24;101044.41;5076200;28;20027;-87
2024/01/15 05:24:14;;;;;;;18.13;10.32;;;;;;;3.29;77.04;101050.63;5092882;28;20042;-88
2024/01/15 05:26:40;;;;;;;16.85;9.90;;;;;;;2.73;76.97;100945.19;5094692;28;20028;-86
2024/01/15 05:29:08;;;;;;;17.83;10.15;;;;;;;3.14;76.96;101017.53;5081343;28;20044;-87
2024/01/15 05:31:33;;;;;;;18.08;10.05;;;;;;;3.30;77.03;101045.56;5087602;28;20031;-87
2024/01/15 05:33:59;;;;;;;19.80;10.52;;;;;;;3.13;77.18;101017.38;5071999;28;20028;-87
2024/01/15 05:36:25;;;;;;;16.80;9.50;;;;;;;3.19;77.33;101023.97;5078527;28;20035;-86
2024/01/15 05:38:58;;;;;;;16.65;9.45;;;;;;;2.84;77.15;100967.66;5088957;28;20038;-87
2024/01/15 05:41:28;;;;;;;16.95;9.73;;;;;;;3.32;77.04;101043.13;5089752;28;20031;-88
2024/01/15 05:43:57;;;;;;;16.70;9.90;;;;;;;3.09;77.47;101010.16;5087413;28;20117;-87
2024/01/15 05:46:23;;;;;;;16.42;9.50;;;;;;;3.06;77.53;101018.53;5087026;28;20028;-87
2024/01/15 05:48:48;;;;;;;15.73;9.18;;;;;;;2.78;77.04;100968.78;5083057;28;20718;-87
2024/01/15 05:51:15;;;;;;;17.48;10.07;;;;;;;2.69;76.81;100940.53;5089942;28;20032;-87
2024/01/15 05:53:44;;;;;;;15.93;9.68;;;;;;;3.33;77.26;101050.13;5071267;28;20059;-86
2024/01/15 05:56:10;;;;;;;16.00;9.38;;;;;;;3.20;77.22;101037.81;5089497;28;20028;-87
2024/01/15 05:58:36;;;;;;;18.45;10.27;;;;;;;3.30;77.21;101052.41;5081916;28;20651;-86
2024/01/15 06:01:01;;;;;;;18.00;10.60;;;;;;;3.10;77.52;101022.28;5077298;28;20036;-86
2024/01/15 06:03:27;;;;;;;15.40;9.65;;;;;;;3.15;77.40;101031.34;5064626;28;20036;-85
2024/01/15 06:05:53;;;;;;;17.48;9.88;;;;;;;3.01;77.40;101014.66;5087974;28;20028;-85
2024/01/15 06:08:18;;;;;;;19.08;10.63;;;;;;;2.91;77.07;100999.13;5082350;28;20405;-86
2024/01/15 06:10:44;;;;;;;18.23;9.90;;;;;;;2.95;77.69;100999.53;5084416;28;20111;-86
2024/01/15 06:13:10;;;;;;;20.17;10.65;;;;;;;2.98;77.47;101007.53;5087450;28;20494;-86
2024/01/15 06:15:35;;;;;;;16.05;9.20;;;;;;;2.93;77.67;101000.19;5086056;28;20044;-86
2024/01/15 06:18:01;;;;;;;16.95;9.43;;;;;;;3.33;77.45;101047.53;5087200;28;20032;-86
2024/01/15 06:20:28;;;;;;;16.80;9.52;;;;;;;2.91;76.90;100970.75;5086311;28;20032;-85
2024/01/15 06:22:53;;;;;;;14.95;9.23;;;;;;;3.23;77.51;101038.06;5090355;28;20039;-86
2024/01/15 06:25:19;;;;;;;16.15;8.88;;;;;;;3.00;77.34;100997.34;5088242;28;20032;-87
2024/01/15 06:27:45;;;;;;;17.00;9.52;;;;;;;3.03;77.77;101003.69;5083854;28;20100;-86
2024/01/15 06:30:11;;;;;;;18.85;9.95;;;;;;;3.12;77.20;101026.81;5087849;28;20024;-87
2024/01/15 06:32:37;;;;;;;;;;;;;;;3.28;77.81;101054.88;5085154;28;20039;-87
2024/01/15 06:35:03;;;;;;;16.08;9.57;;;;;;;2.95;77.35;101003.81;5081202;28;19916;-86
2024/01/15 06:37:28;;;;;;;19.05;9.45;;;;;;;2.97;77.44;101008.31;5084527;28;20090;-88
2024/01/15 06:39:54;;;;;;;17.20;9.68;;;;;;;2.89;77.47;101000.69;5066896;28;20107;-86
2024/01/15 06:42:21;;;;;;;17.08;9.85;;;;;;;2.74;77.14;100967.59;5081340;28;20169;-86
2024/01/15 06:44:47;;;;;;;17.30;10.02;;;;;;;2.91;77.66;100987.13;5070274;28;20036;-88
2024/01/15 06:47:14;;;;;;;16.80;9.70;;;;;;;2.89;77.77;100988.69;5067595;28;20031;-89
2024/01/15 06:49:41;;;;;;;17.73;9.98;;;;;;;2.70;76.76;100925.94;5084057;28;20527;-88
2024/01/15 06:52:07;;;;;;;16.00;9.55;;;;;;;3.37;76.97;101044.44;5074578;28;20028;-89
2024/01/15 06:54:33;;;;;;;18.45;10.07;;;;;;;3.00;76.99;101002.50;5085124;28;20477;-85
2024/01/15 06:56:58;;;;;;;16.73;9.50;;;;;;;3.01;76.74;100984.59;5089827;28;20056;-85
2024/01/15 06:59:26;;;;;;;17.92;9.73;;;;;;;3.37;76.65;101049.63;5091839;28;20497;-88
2024/01/15 07:01:52;;;;;;;17.90;9.88;;;;;;;2.76;77.36;100960.00;5090126;28;20035;-86
2024/01/15 07:04:17;;;;;;;18.73;10.48;;;;;;;3.08;77.32;101008.34;5080713;28;20702;-87
2024/01/15 07:06:43;;;;;;;14.18;8.98;;;;;;;2.95;77.02;100981.47;5085897;28;20177;-88
2024/01/15 07:09:10;;;;;;;16.40;9.80;;;;;;;3.27;77.16;101037.56;5069897;28;20240;-88
2024/01/15 07:11:36;;;;;;;17.35;9.52;;;;;;;3.08;77.25;101004.09;5085172;28;20040;-88
2024/01/15 07:14:02;;;;;;;18.45;10.32;;;;;;;2.82;77.40;100965.72;5089556;28;20024;-87
2024/01/15 07:16:28;;;;;;;16.92;9.82;;;;;;;3.21;77.23;101030.19;5072640;28;20055;-87
2024/01/15 07:18:54;;;;;;;15.88;9.80;;;;;;;3.16;77.26;101030.56;5088303;28;20035;-86
2024/01/15 07:21:20;;;;;;;;;;;;;;;3.26;77.45;101044.41;5073089;28;20044;-86
2024/01/15 07:23:45;;;;;;;16.58;9.32;;;;;;;2.77;77.46;100973.06;5080138;28;20447;-86
2024/01/15 07:26:11;;;;;;;19.00;9.90;;;;;;;2.87;77.63;100990.22;5083347;28;20031;-87
2024/01/15 07:28:38;;;;;;;17.63;10.38;;;;;;;2.81;77.32;100982.84;5069296;28;20038;-88
2024/01/15 07:31:06;;;;;;;17.27;9.90;;;;;;;2.89;77.37;100991.25;5087303;28;20035;-87
2024/01/15 07:33:31;;;;;;;14.43;8.98;;;;;;;3.20;77.02;101020.66;5088835;28;20035;-87
2024/01/15 07:35:58;;;;;;;16.75;9.38;;;;;;;3.01;77.11;101000.06;5088244;28;20550;-87
2024/01/15 07:38:23;;;;;;;16.50;10.02;;;;;;;2.96;76.85;100974.63;5089988;28;20032;-88
2024/01/15 07:40:49;;;;;;;17.48;10.20;;;;;;;2.84;77.40;100965.06;5069596;28;20093;-88
2024/01/15 07:43:15;;;;;;;18.75;10.05;;;;;;;2.95;77.77;101002.13;5088789;28;20513;-88
2024/01/15 07:45:41;;;;;;;18.42;10.60;;;;;;;2.93;77.06;100967.53;5092984;28;20030;-88
2024/01/15 07:48:07;;;;;;;16.67;9.88;;;;;;;3.04;77.42;101010.66;5073552;28;20032;-88
2024/01/15 07:50:32;;;;;;;18.88;10.30;;;;;;;2.78;77.45;100972.25;5100302;28;20396;-86
2024/01/15 07:52:58;;;;;;;17.80;10.38;;;;;;;3.10;77.50;101010.28;5068459;28;20040;-88
2024/01/15 07:55:23;;;;;;;16.95;10.00;;;;;;;2.89;76.76;100959.41;5087309;28;20028;-88
2024/01/15 07:57:50;;;;;;;16.70;10.30;;;;;;;2.83;77.00;100941.72;5073778;28;20028;-87
2024/01/15 08:00:16;;;;;;;15.35;9.18;;;;;;;3.02;77.26;100982.91;5079407;28;20041;-89
2024/01/15 08:02:42;;;;;;;17.48;10.50;;;;;;;3.12;77.04;100993.28;5096477;28;20039;-88
2024/01/15 08:05:10;;;;;;;19.65;10.18;;;;;;;3.20;76.75;100993.94;5074987;28;20118;-88
2024/01/15 08:07:36;;;;;;;17.45;10.25;;;;;;;3.17;76.66;100980.75;5074817;28;20032;-90
2024/01/15 08:10:02;;;;;;;15.93;9.38;;;;;;;2.88;76.77;100945.63;5073333;28;20027;-89
2024/01/15 08:12:27;;;;;;;18.65;9.88;;;;;;;2.76;76.62;100919.66;5084781;28;20141;-89
2024/01/15 08:14:54;;;;;;;18.85;10.20;;;;;;;3.22;76.41;100995.00;5072234;28;20065;-88
2024/01/15 08:17:19;;;;;;;17.27;9.98;;;;;;;2.61;76.59;100896.00;5087924;28;20111;-88
2024/01/15 08:19:46;;;;;;;15.90;9.55;;;;;;;3.37;76.23;100993.72;5094301;28;20611;-87
2024/01/15 08:22:11;;;;;;;15.85;9.40;;;;;;;3.13;76.11;100979.59;5097751;28;20025;-89
2024/01/15 08:24:37;;;;;;;15.98;9.40;;;;;;;3.58;76.04;101040.25;5095313;28;20034;-88
2024/01/15 08:27:04;;;;;;;16.10;9.18;;;;;;;3.04;76.36;100958.16;5089720;28;20110;-88
2024/01/15 08:29:32;;;;;;;16.48;9.50;;;;;;;3.06;76.10;100951.47;5089817;28;20034;-86
2024/01/15 08:31:58;;;;;;;16.13;9.23;;;;;;;3.18;76.25;100974.84;5093379;28;20035;-88
2024/01/15 08:34:24;;;;;;;16.73;9.95;;;;;;;3.51;76.06;101024.97;5096860;28;20028;-88
2024/01/15 08:36:49;;;;;;;17.63;9.80;;;;;;;3.01;76.55;100937.28;5091946;28;20035;-88
2024/01/15 08:39:19;;;;;;;16.17;9.00;;;;;;;3.09;76.52;100944.00;5081043;28;20030;-88
2024/01/15 08:41:48;;;;;;;16.60;9.68;;;;;;;3.30;76.13;100981.03;5092510;28;20062;-88
2024/01/15 08:44:15;;;;;;;16.40;9.32;;;;;;;3.40;76.06;100965.56;5092286;28;20028;-88
2024/01/15 08:46:41;;;;;;;15.68;9.45;;;;;;;3.30;76.75;100977.56;5103228;28;20390;-87
2024/01/15 08:49:06;;;;;;;16.45;9.40;;;;;;;2.93;76.73;100917.63;5098508;28;20024;-87
2024/01/15 08:51:33;;;;;;;16.27;9.18;;;;;;;3.60;76.52;100985.38;5078528;28;20024;-88
2024/01/15 08:53:59;;;;;;;16.73;9.93;;;;;;;3.27;76.30;100944.66;5091851;28;20043;-87
2024/01/15 08:56:27;;;;;;;15.85;9.20;;;;;;;3.00;76.59;100894.16;5093107;28;20032;-88
2024/01/15 08:58:52;;;;;;;15.85;9.00;;;;;;;3.44;75.77;100922.88;5078559;28;20052;-88
2024/01/15 09:01:19;;;;;;;15.55;9.45;;;;;;;3.65;75.90;100965.09;5096549;28;20060;-88
2024/01/15 09:03:46;;;;;;;15.30;8.85;;;;;;;3.33;75.78;100908.16;5098227;28;20070;-87
2024/01/15 09:06:11;;;;;;;15.80;9.32;;;;;;;3.44;76.49;100928.94;5101156;28;20077;-88
2024/01/15 09:08:37;;;;;;;16.08;9.60;;;;;;;3.18;76.32;100875.09;5092266;28;20079;-88
2024/01/15 09:11:04;;;;;;;15.93;9.80;;;;;;;3.49;76.24;100941.31;5085072;28;20036;-88
2024/01/15 09:13:32;;;;;;;14.57;9.20;;;;;;;3.45;75.57;100911.75;5085504;28;20032;-88
2024/01/15 09:15:59;;;;;;;15.77;9.32;;;;;;;3.53;75.64;100904.66;5110455;28;20035;-89
2024/01/15 09:18:25;;;;;;;15.07;9.25;;;;;;;3.36;75.65;100885.19;5091535;28;20460;-87
2024/01/15 09:20:51;;;;;;;15.63;9.30;;;;;;;3.23;76.08;100862.59;5114141;27;20031;-88
2024/01/15 09:23:16;;;;;;;14.98;9.32;;;;;;;3.21;75.96;100854.72;5092616;28;20390;-87
2024/01/15 09:25:42;;;;;;;15.90;8.63;;;;;;;3.26;76.01;100848.28;5092357;28;20056;-87
2024/01/15 09:28:08;;;;;;;15.10;9.13;;;;;;;3.42;75.99;100875.38;5083551;28;20024;-87
2024/01/15 09:30:34;;;;;;;16.13;9.40;;;;;;;3.43;76.24;100908.16;5074872;28;20438;-87
2024/01/15 09:32:59;;;;;;;15.32;9.05;;;;;;;3.53;76.07;100894.34;5102330;28;20111;-87
2024/01/15 09:35:25;;;;;;;15.95;9.02;;;;;;;3.64;76.15;100915.13;5075481;28;20039;-89
2024/01/15 09:37:52;;;;;;;15.35;9.68;;;;;;;3.54;76.19;100902.22;5093640;28;20028;-88
2024/01/15 09:40:20;;;;;;;16.77;9.02;;;;;;;3.62;76.44;100898.59;5091515;28;20024;-88
2024/01/15 09:42:46;;;;;;;13.82;8.75;;;;;;;3.52;76.42;100883.13;5091743;28;20035;-87
2024/01/15 09:45:12;;;;;;;15.50;8.90;;;;;;;3.75;76.15;100886.72;5072660;28;20031;-87
2024/01/15 09:47:38;;;;;;;14.07;8.75;;;;;;;3.58;76.08;100867.25;5091829;28;20673;-87
2024/01/15 09:50:04;;;;;;;15.93;9.40;;;;;;;3.49;76.46;100848.38;5109722;28;20485;-87
2024/01/15 09:52:30;;;;;;;17.20;9.20;;;;;;;2.97;76.42;100762.38;5095322;28;20048;-87
2024/01/15 09:54:58;;;;;;;15.77;8.98;;;;;;;3.42;76.14;100840.13;5090727;28;20051;-86
2024/01/15 09:57:24;;;;;;;29.65;15.65;;;;;;;3.22;75.80;100799.75;5092493;28;20092;-88
2024/01/15 09:59:52;;;;;;;41.72;20.02;;;;;;;3.43;76.17;100820.41;5091780;28;20115;-87
2024/01/15 10:02:18;;;;;;;34.95;18.27;;;;;;;3.16;76.03;100788.94;5080840;28;20031;-87
2024/01/15 10:04:45;;;;;;;33.83;17.75;;;;;;;3.41;76.18;100801.31;5078288;28;20036;-87
2024/01/15 10:07:11;;;;;;;;;;;;;;;3.66;75.66;100843.84;5079535;28;20108;-87
2024/01/15 10:09:37;;;;;;;32.10;16.58;;;;;;;3.46;76.16;100813.78;5088303;28;19924;-87
2024/01/15 10:12:03;;;;;;;34.55;17.60;;;;;;;3.31;75.68;100770.34;5087904;28;20386;-86
2024/01/15 10:14:30;;;;;;;35.42;18.25;;;;;;;3.25;76.22;100773.31;5087371;28;20059;-86
2024/01/15 10:16:56;;;;;;;34.50;16.85;;;;;;;3.36;76.09;100802.59;5081854;28;20029;-86
2024/01/15 10:19:23;;;;;;;34.38;17.65;;;;;;;3.58;76.47;100819.09;5083469;28;20028;-86
2024/01/15 10:21:49;;;;;;;30.70;15.95;;;;;;;3.34;76.56;100784.38;5087293;28;20085;-86
2024/01/15 10:24:17;;;;;;;29.30;15.75;;;;;;;3.41;76.17;100775.50;5088001;28;20417;-86
2024/01/15 10:26:44;;;;;;;31.40;16.52;;;;;;;3.31;76.57;100745.44;5067114;28;20644;-87
2024/01/15 10:29:10;;;;;;;29.38;16.27;;;;;;;3.48;76.46;100767.47;5090212;28;20036;-86
2024/01/15 10:31:37;;;;;;;28.70;15.07;;;;;;;3.56;75.99;100781.00;5091173;28;20035;-87
2024/01/15 10:34:15;;;;;;;30.95;15.95;;;;;;;3.52;76.25;100785.00;5088264;28;20040;-85
2024/01/15 10:36:41;;;;;;;27.38;15.43;;;;;;;3.53;76.54;100773.00;5111335;27;20029;-86
2024/01/15 10:39:12;;;;;;;29.88;15.43;;;;;;;3.43;76.27;100742.97;5081197;28;20063;-86
2024/01/15 10:41:37;;;;;;;28.20;14.52;;;;;;;3.51;75.82;100741.00;5077772;28;20123;-87
2024/01/15 10:44:04;;;;;;;27.80;14.90;;;;;;;3.47;75.97;100740.75;5085109;28;20150;-87
2024/01/15 10:46:30;;;;;;;27.73;14.73;;;;;;;3.37;76.30;100716.66;5088854;28;20036;-87
2024/01/15 10:48:56;;;;;;;27.73;14.98;;;;;;;3.42;76.13;100723.97;5083386;28;20036;-87
2024/01/15 10:51:21;;;;;;;27.52;14.50;;;;;;;3.45;76.09;100715.56;5070633;28;20032;-87
2024/01/15 10:53:48;;;;;;;26.75;14.95;;;;;;;3.36;76.17;100714.81;5080020;28;20040;-87
2024/01/15 10:56:13;;;;;;;23.95;13.52;;;;;;;3.54;76.15;100733.50;5070729;28;20035;-87
2024/01/15 10:58:40;;;;;;;28.20;14.68;;;;;;;3.36;76.33;100705.41;5081056;28;20024;-87
2024/01/15 11:01:05;;;;;;;;;;;;;;;3.71;76.25;100763.28;5084675;28;20090;-86
2024/01/15 11:03:31;;;;;;;27.15;13.70;;;;;;;3.68;76.46;100758.75;5088461;28;20461;-86
2024/01/15 11:05:57;;;;;;;26.48;14.05;;;;;;;3.18;76.62;100679.00;5090095;28;20031;-86
2024/01/15 11:08:24;;;;;;;23.63;12.73;;;;;;;3.04;76.73;100657.22;5088181;28;20618;-87
2024/01/15 11:10:52;;;;;;;27.17;13.52;;;;;;;3.34;76.63;100673.41;5101485;28;20050;-86
2024/01/15 11:13:21;;;;;;;23.48;13.30;;;;;;;3.74;76.08;100741.16;5083809;28;20041;-86
2024/01/15 11:16:00;;;;;;;26.23;13.43;;;;;;;3.50;76.20;100701.38;5079503;28;20064;-87
2024/01/15 11:18:31;;;;;;;23.70;12.90;;;;;;;3.58;76.69;100720.97;5086471;28;20035;-87
2024/01/15 11:21:17;;;;;;;25.20;13.77;;;;;;;3.67;76.31;100731.13;5088834;28;20507;-86
2024/01/15 11:23:46;;;;;;;22.75;12.60;;;;;;;3.60;77.07;100723.69;5077477;28;20024;-86
2024/01/15 11:26:28;;;;;;;26.50;13.75;;;;;;;3.60;76.94;100711.66;5081940;28;20448;-87
2024/01/15 11:28:56;;;;;;;25.02;13.27;;;;;;;3.43;76.54;100686.19;5088769;28;20382;-86
2024/01/15 11:31:27;;;;;;;24.17;13.85;;;;;;;3.49;76.53;100676.31;5086559;28;20036;-86
2024/01/15 11:33:53;;;;;;;23.92;13.15;;;;;;;3.29;76.56;100642.84;5085529;28;20036;-86
2024/01/15 11:36:19;;;;;;;23.63;13.23;;;;;;;3.23;76.55;100635.50;5073499;28;20101;-86
2024/01/15 11:38:45;;;;;;;25.42;13.93;;;;;;;3.38;76.84;100653.91;5088663;28;20039;-86